If you wish to contribute or participate in the discussions about articles you are invited to join SKYbrary as a registered user

 Actions

Carolina (Maranhão) Airport

From SKYbrary Wiki

SBCI
Airport
ICAO: SBCI – IATA: CLN
Summary
Name Carolina (Maranhão) Airport
Region South America and Caribbean
Territory "Sb" is not in the list (AG, AN, AY, BG, BI, BK, C, CT, DA, DB, ...) of allowed values for the "ICAO Territory" property. Brazil BR.gif
Location Carolina, Maranhao
Serving Carolina
Elevation 172.212 m
565 ft172.212 m
Coordinates 7° 19' 14.02" S, 47° 27' 31.00" W
Runways
Designator Length Width Surface ROPS
11/29 1800 m5,905.512 ft
45 m147.638 ft
ASP /


METAR
Observation SBCI 140100Z AUTO VRB02KT CAVOK 24/23 Q1009
Station Maranhao / Carolina Airport
Date/Time 14 December 2019 01:00:00
Wind direction °
Wind speed 02 kts
Lowest cloud amount clouds and visibility OK
Temperature 24°C
Dew point 23°C
Humidity 94%
QNH 1009 hPa
Weather condition n/a

Brig. Lysias Augusto Rodrigues Airport is the airport serving Carolina, Brazil.

Climatology

Tropical savannah climate (Köppen climate classification Aw)

Maps

Terrain

Loading map...

Airport Layout

Loading map...


Accidents & Serious Incidents at or in vicinity of SBCI

None on SKYbrary